Tinsley, Mississippi
Current Conditions -  °F | °C
As of 12:35 PM on Friday 31 Oct 2014 (Local Time) from KJVW Reporting Station
Clear Clear  
Wind Chill: 66°   Ceiling: Unl
Heat Index: 66°   Visibility: 10mi
Dew Point: 63°   Wind: 10mph
Humidity: 88%   Direction: 340°NNW
Pressure: 30.07"   Gusts: 17mph
Location:  32.73°N, 90.46°W
Report Text: KJVW 311735Z AUTO 34009G15KT 10SM CLR 19/17 A3007 RMK AO2
Loading
Personal Weather Stations






























Interactive Weather Map
Tropical Storm Tracking
New forecast layout! Learn more

10-Day Weather Forecast

Advertisements
Track Severe Weather on mobile